createdAt,value
2022-10-19T00:01:30.397Z,101235.88
2022-10-19T00:03:59.963Z,101239.59
2022-10-19T00:06:31.971Z,101225.41
2022-10-19T00:09:03.792Z,101237.03
2022-10-19T00:11:35.129Z,101241.97
2022-10-19T00:14:04.441Z,101230.31
2022-10-19T00:16:39.641Z,101231.53
2022-10-19T00:19:13.012Z,101229.06
2022-10-19T00:21:42.318Z,101229.72
2022-10-19T00:24:12.409Z,101224.16
2022-10-19T00:26:40.917Z,101223.69
2022-10-19T00:29:09.894Z,101227.22
2022-10-19T00:31:38.232Z,101225.13
2022-10-19T00:34:06.970Z,101221.72
2022-10-19T00:36:39.937Z,101211.59
2022-10-19T00:39:13.832Z,101213.72
2022-10-19T00:41:43.243Z,101219.28
2022-10-19T00:45:01.880Z,101214.22
2022-10-19T00:47:31.280Z,101210.00
2022-10-19T00:50:01.323Z,101219.28
2022-10-19T00:52:30.257Z,101208.28
2022-10-19T00:55:00.911Z,101215.28
2022-10-19T00:57:32.373Z,101217.72
2022-10-19T01:00:03.677Z,101220.25
2022-10-19T01:02:32.313Z,101229.25
2022-10-19T01:05:02.537Z,101223.44
2022-10-19T01:07:30.944Z,101224.16
2022-10-19T01:10:02.066Z,101228.88
2022-10-19T01:12:52.120Z,101219.81
2022-10-19T01:15:33.010Z,101216.41
2022-10-19T01:18:12.230Z,101210.69
2022-10-19T01:21:04.359Z,101218.38
2022-10-19T01:24:21.388Z,101213.16
2022-10-19T01:27:24.709Z,101212.50
2022-10-19T01:30:12.799Z,101214.81
2022-10-19T01:32:54.203Z,101198.78
2022-10-19T01:35:33.593Z,101196.75
2022-10-19T01:38:15.751Z,101194.41
2022-10-19T01:40:53.467Z,101192.66
2022-10-19T01:43:31.088Z,101189.66
2022-10-19T01:46:08.306Z,101175.72
2022-10-19T01:48:40.336Z,101181.13
2022-10-19T01:51:14.539Z,101180.56
2022-10-19T01:53:48.202Z,101172.22
2022-10-19T01:56:21.158Z,101174.81
2022-10-19T01:58:51.564Z,101168.31
2022-10-19T02:01:25.591Z,101166.81
2022-10-19T02:03:56.325Z,101166.84
2022-10-19T02:06:25.319Z,101169.31
2022-10-19T02:08:55.187Z,101168.59
2022-10-19T02:11:25.052Z,101172.03
2022-10-19T02:13:59.933Z,101165.56
2022-10-19T02:16:37.867Z,101169.75
2022-10-19T02:19:08.665Z,101158.81
2022-10-19T02:21:36.948Z,101153.41
2022-10-19T02:24:06.155Z,101149.88
2022-10-19T02:26:34.980Z,101153.81
2022-10-19T02:29:06.337Z,101152.16
2022-10-19T02:31:36.682Z,101150.91
2022-10-19T02:34:05.992Z,101150.06
2022-10-19T02:36:34.622Z,101149.88
2022-10-19T02:39:03.283Z,101146.91
2022-10-19T02:41:38.095Z,101154.47
2022-10-19T02:44:14.931Z,101148.22
2022-10-19T02:46:47.390Z,101148.13
2022-10-19T02:49:16.907Z,101147.16
2022-10-19T02:52:00.449Z,101149.41
2022-10-19T02:54:29.602Z,101140.97
2022-10-19T02:56:58.396Z,101136.69
2022-10-19T02:59:27.362Z,101138.06
2022-10-19T03:01:57.226Z,101146.25
2022-10-19T03:04:25.602Z,101130.75
2022-10-19T03:06:53.901Z,101134.78
2022-10-19T03:09:22.340Z,101137.72
2022-10-19T03:11:50.676Z,101140.44
2022-10-19T03:14:18.968Z,101126.78
2022-10-19T03:16:47.656Z,101131.56
2022-10-19T03:19:17.993Z,101132.81
2022-10-19T03:21:46.551Z,101135.19
2022-10-19T03:24:15.034Z,101133.22
2022-10-19T03:26:43.428Z,101130.31
2022-10-19T03:29:11.692Z,101129.06
2022-10-19T03:31:40.085Z,101119.59
2022-10-19T03:34:08.393Z,101118.88
2022-10-19T03:36:40.003Z,101121.69
2022-10-19T03:39:13.506Z,101117.81
2022-10-19T03:41:42.548Z,101122.94
2022-10-19T03:44:12.649Z,101123.66
2022-10-19T03:46:42.064Z,101114.69
2022-10-19T03:49:11.176Z,101106.34
2022-10-19T03:51:41.428Z,101111.28
2022-10-19T03:54:14.966Z,101111.91
2022-10-19T03:56:44.194Z,101123.13
2022-10-19T03:59:16.027Z,101118.25
2022-10-19T04:01:47.350Z,101119.88
2022-10-19T04:04:18.636Z,101114.19
2022-10-19T04:06:51.003Z,101112.91
2022-10-19T04:09:23.434Z,101122.19
2022-10-19T04:11:52.001Z,101113.63
2022-10-19T04:14:32.195Z,101112.22
2022-10-19T04:17:02.087Z,101112.81
2022-10-19T04:19:31.065Z,101106.56
2022-10-19T04:22:00.802Z,101113.06
2022-10-19T04:24:29.627Z,101115.66
2022-10-19T04:26:58.242Z,101120.16
2022-10-19T04:29:30.005Z,101116.19
2022-10-19T04:31:59.714Z,101123.16
2022-10-19T04:34:28.242Z,101132.97
2022-10-19T04:36:59.243Z,101121.63
2022-10-19T04:39:29.107Z,101134.69
2022-10-19T04:41:57.578Z,101140.13
2022-10-19T04:44:26.170Z,101145.34
2022-10-19T04:46:54.771Z,101143.72
2022-10-19T04:49:23.307Z,101140.34
2022-10-19T04:51:51.753Z,101137.25
2022-10-19T04:54:20.069Z,101139.25
2022-10-19T04:56:50.098Z,101133.72
2022-10-19T04:59:18.426Z,101138.19
2022-10-19T05:01:47.532Z,101142.97
2022-10-19T05:04:16.053Z,101135.38
2022-10-19T05:06:44.467Z,101134.66
2022-10-19T05:09:12.835Z,101133.81
2022-10-19T05:11:41.087Z,101137.34
2022-10-19T05:14:10.811Z,101144.25
2022-10-19T05:16:39.122Z,101144.06
2022-10-19T05:19:07.611Z,101142.09
2022-10-19T05:21:36.102Z,101142.00
2022-10-19T05:24:04.536Z,101147.25
2022-10-19T05:26:33.181Z,101133.19
2022-10-19T05:29:04.365Z,101134.56
2022-10-19T05:31:35.364Z,101132.44
2022-10-19T05:34:05.049Z,101126.25
2022-10-19T05:36:36.839Z,101127.53
2022-10-19T05:39:08.782Z,101124.72
2022-10-19T05:41:37.103Z,101123.13
2022-10-19T05:44:06.729Z,101121.25
2022-10-19T05:46:36.464Z,101129.47
2022-10-19T05:49:05.074Z,101122.81
2022-10-19T05:51:33.331Z,101131.06
2022-10-19T05:54:04.932Z,101131.25
2022-10-19T05:56:34.148Z,101133.22
2022-10-19T05:59:06.551Z,101127.41
2022-10-19T06:01:37.494Z,101128.66
2022-10-19T06:04:07.360Z,101126.38
2022-10-19T06:06:36.066Z,101126.81
2022-10-19T06:09:05.124Z,101132.09
2022-10-19T06:11:36.733Z,101132.50
2022-10-19T06:14:08.110Z,101122.81
2022-10-19T06:16:38.033Z,101122.38
2022-10-19T06:19:07.571Z,101115.31
2022-10-19T06:21:38.611Z,101116.97
2022-10-19T06:24:08.493Z,101116.75
2022-10-19T06:26:36.898Z,101119.16
2022-10-19T06:29:06.161Z,101124.88
2022-10-19T06:31:38.360Z,101123.00
2022-10-19T06:34:07.735Z,101118.50
2022-10-19T06:36:36.558Z,101106.56
2022-10-19T06:39:06.008Z,101111.16
2022-10-19T06:41:34.967Z,101119.06
2022-10-19T06:44:19.669Z,101121.97
2022-10-19T06:46:49.680Z,101121.38
2022-10-19T06:49:18.085Z,101130.63
2022-10-19T06:51:46.456Z,101132.72
2022-10-19T06:54:16.481Z,101127.09
2022-10-19T06:56:44.887Z,101129.91
2022-10-19T06:59:14.821Z,101128.53
2022-10-19T07:01:43.663Z,101132.84
2022-10-19T07:04:13.732Z,101146.16
2022-10-19T07:06:42.349Z,101138.34
2022-10-19T07:09:10.624Z,101135.59
2022-10-19T07:11:44.784Z,101137.56
2022-10-19T07:14:14.253Z,101135.41
2022-10-19T07:16:42.820Z,101137.69
2022-10-19T07:19:13.634Z,101133.09
2022-10-19T07:21:43.780Z,101137.53
2022-10-19T07:24:12.493Z,101123.38
2022-10-19T07:26:40.900Z,101118.59
2022-10-19T07:29:09.320Z,101123.03
2022-10-19T07:31:37.576Z,101127.06
2022-10-19T07:34:06.942Z,101126.22
2022-10-19T07:36:39.633Z,101122.75
2022-10-19T07:39:08.883Z,101120.56
2022-10-19T07:41:37.482Z,101120.44
2022-10-19T07:44:08.211Z,101126.03
2022-10-19T07:46:39.361Z,101111.13
2022-10-19T07:49:11.003Z,101115.13
2022-10-19T07:51:41.530Z,101117.78
2022-10-19T07:54:10.504Z,101111.50
2022-10-19T07:56:41.380Z,101112.66
2022-10-19T07:59:11.453Z,101118.72
2022-10-19T08:01:44.102Z,101111.13
2022-10-19T08:07:02.805Z,101121.44
2022-10-19T08:09:52.070Z,101114.41
2022-10-19T08:12:22.237Z,101105.41
2022-10-19T08:14:50.919Z,101109.97
2022-10-19T08:17:19.518Z,101108.31
2022-10-19T08:19:48.035Z,101116.44
2022-10-19T08:22:17.788Z,101112.38
2022-10-19T08:24:46.262Z,101105.78
2022-10-19T08:27:15.566Z,101106.00
2022-10-19T08:29:43.901Z,101107.22
2022-10-19T08:32:12.960Z,101097.97
2022-10-19T08:34:41.616Z,101110.06
2022-10-19T08:37:20.065Z,101107.81
2022-10-19T08:40:00.091Z,101101.78
2022-10-19T08:42:47.762Z,101105.34
2022-10-19T08:45:28.425Z,101105.69
2022-10-19T08:48:23.930Z,101097.09
2022-10-19T08:50:52.869Z,101106.09
2022-10-19T08:53:33.692Z,101105.50
2022-10-19T08:56:51.713Z,101097.88
2022-10-19T08:59:39.241Z,101104.56
2022-10-19T09:02:18.982Z,101118.44
2022-10-19T09:04:56.545Z,101106.59
2022-10-19T09:07:29.056Z,101102.53
2022-10-19T09:10:02.413Z,101097.09
2022-10-19T09:12:44.372Z,101102.44
2022-10-19T09:15:16.849Z,101091.47
2022-10-19T09:17:45.269Z,101098.03
2022-10-19T09:20:20.492Z,101097.31
2022-10-19T09:22:59.549Z,101092.78
2022-10-19T09:25:30.676Z,101079.84
2022-10-19T09:28:17.415Z,101070.59
2022-10-19T09:30:49.272Z,101070.66
2022-10-19T09:33:28.169Z,101068.38
2022-10-19T09:35:58.189Z,101065.69
2022-10-19T09:38:29.875Z,101062.31
2022-10-19T09:40:59.346Z,101059.06
2022-10-19T09:43:30.467Z,101070.75
2022-10-19T09:46:11.706Z,101068.25
2022-10-19T09:48:51.810Z,101055.63
2022-10-19T09:51:22.068Z,101046.53
2022-10-19T09:53:54.473Z,101049.63
2022-10-19T09:56:25.796Z,101053.25
2022-10-19T09:58:58.344Z,101044.25
2022-10-19T10:01:41.877Z,101045.34
2022-10-19T10:04:16.913Z,101052.56
2022-10-19T10:06:48.243Z,101053.16
2022-10-19T10:09:18.993Z,101050.16
2022-10-19T10:11:50.822Z,101047.81
2022-10-19T10:14:24.746Z,101039.31
2022-10-19T10:16:57.472Z,101042.63
2022-10-19T10:19:33.404Z,101035.91
2022-10-19T10:22:04.544Z,101026.03
2022-10-19T10:24:35.193Z,101029.69
2022-10-19T10:27:07.312Z,101024.28
2022-10-19T10:29:39.993Z,101027.38
2022-10-19T10:32:13.386Z,101019.31
2022-10-19T10:34:54.009Z,101016.47
2022-10-19T10:37:30.856Z,101011.31
2022-10-19T10:40:03.675Z,101013.84
2022-10-19T10:42:43.065Z,101009.94
2022-10-19T10:45:21.396Z,101007.91
2022-10-19T10:47:50.572Z,100991.63
2022-10-19T10:50:24.475Z,100997.13
2022-10-19T10:53:01.052Z,100996.31
2022-10-19T10:55:31.576Z,100984.47
2022-10-19T10:58:15.563Z,100977.06
2022-10-19T11:00:48.134Z,100971.97
2022-10-19T11:03:21.399Z,100974.47
2022-10-19T11:05:54.645Z,100969.94
2022-10-19T11:08:33.143Z,100976.47
2022-10-19T11:11:23.595Z,100967.47
2022-10-19T11:14:00.610Z,100957.25
2022-10-19T11:16:35.738Z,100955.25
2022-10-19T11:19:16.826Z,100940.53
2022-10-19T11:21:57.279Z,100922.19
2022-10-19T11:24:36.795Z,100928.94
2022-10-19T11:27:23.235Z,100935.06
2022-10-19T11:30:04.640Z,100926.19
2022-10-19T11:32:47.127Z,100921.47
2022-10-19T11:35:54.120Z,100920.69
2022-10-19T11:38:44.869Z,100918.31
2022-10-19T11:41:32.171Z,100915.00
2022-10-19T11:44:22.731Z,100916.44
2022-10-19T11:47:19.755Z,100913.00
2022-10-19T11:50:04.811Z,100916.72
2022-10-19T11:52:46.190Z,100907.22
2022-10-19T11:55:36.383Z,100903.06
2022-10-19T11:58:24.437Z,100896.09
2022-10-19T12:01:01.464Z,100890.13
2022-10-19T12:04:15.255Z,100884.06
2022-10-19T12:06:58.554Z,100883.25
2022-10-19T12:09:44.300Z,100876.72
2022-10-19T12:12:35.108Z,100866.69
2022-10-19T12:15:26.131Z,100863.41
2022-10-19T12:18:00.694Z,100861.63
2022-10-19T12:20:35.953Z,100853.34
2022-10-19T12:23:21.916Z,100859.25
2022-10-19T12:25:51.344Z,100853.78
2022-10-19T12:28:29.153Z,100853.03
2022-10-19T12:30:59.136Z,100856.75
2022-10-19T12:33:43.984Z,100847.63
2022-10-19T12:36:26.488Z,100844.56
2022-10-19T12:39:08.413Z,100836.06
2022-10-19T12:41:45.923Z,100829.94
2022-10-19T12:44:42.548Z,100816.56
2022-10-19T12:47:15.947Z,100819.31
2022-10-19T12:49:50.364Z,100816.38
2022-10-19T12:52:42.222Z,100807.28
2022-10-19T12:55:29.740Z,100798.09
2022-10-19T12:58:02.733Z,100801.75
2022-10-19T13:00:34.205Z,100795.66
2022-10-19T13:03:07.801Z,100788.66
2022-10-19T13:05:37.886Z,100778.97
2022-10-19T13:08:12.074Z,100777.28
2022-10-19T13:11:06.746Z,100783.63
2022-10-19T13:14:04.772Z,100775.41
2022-10-19T13:16:59.248Z,100775.94
2022-10-19T13:19:27.901Z,100777.88
2022-10-19T13:22:27.464Z,100765.09
2022-10-19T13:25:27.930Z,100754.50
2022-10-19T13:28:02.655Z,100745.94
2022-10-19T13:31:06.103Z,100732.47
2022-10-19T13:33:53.375Z,100729.50
2022-10-19T13:36:23.645Z,100728.00
2022-10-19T13:39:16.742Z,100727.34
2022-10-19T13:42:03.390Z,100724.25
2022-10-19T13:44:36.654Z,100723.75
2022-10-19T13:50:38.107Z,100725.50
2022-10-19T13:53:31.079Z,100720.16
2022-10-19T13:56:21.087Z,100714.47
2022-10-19T13:59:24.755Z,100701.50
2022-10-19T14:02:31.715Z,100692.44
2022-10-19T14:05:24.392Z,100691.63
2022-10-19T14:08:06.827Z,100688.81
2022-10-19T14:10:56.179Z,100691.44
2022-10-19T14:13:25.195Z,100697.72
2022-10-19T14:15:56.276Z,100688.50
2022-10-19T14:18:29.682Z,100687.84
2022-10-19T14:21:01.052Z,100687.84
2022-10-19T14:23:32.640Z,100694.09
2022-10-19T14:26:05.046Z,100692.25
2022-10-19T14:28:34.889Z,100678.53
2022-10-19T14:31:06.773Z,100676.53
2022-10-19T14:33:41.338Z,100669.22
2022-10-19T14:36:20.487Z,100659.75
2022-10-19T14:38:54.500Z,100658.81
2022-10-19T14:41:32.247Z,100661.44
2022-10-19T14:44:02.876Z,100653.50
2022-10-19T14:46:33.470Z,100654.06
2022-10-19T14:49:05.909Z,100649.28
2022-10-19T14:51:42.243Z,100647.94
2022-10-19T14:54:20.277Z,100643.81
2022-10-19T14:56:56.582Z,100639.56
2022-10-19T14:59:30.397Z,100632.63
2022-10-19T15:02:02.178Z,100631.97
2022-10-19T15:04:35.704Z,100627.97
2022-10-19T15:07:17.971Z,100624.47
2022-10-19T15:09:54.719Z,100625.53
2022-10-19T15:12:30.548Z,100618.19
2022-10-19T15:14:59.275Z,100626.44
2022-10-19T15:17:31.137Z,100626.44
2022-10-19T15:20:01.998Z,100624.59
2022-10-19T15:22:41.813Z,100619.84
2022-10-19T15:25:32.671Z,100625.09
2022-10-19T15:28:22.149Z,100624.78
2022-10-19T15:31:01.476Z,100619.03
2022-10-19T15:33:30.190Z,100627.09
2022-10-19T15:36:17.103Z,100626.09
2022-10-19T15:38:48.531Z,100620.00
2022-10-19T15:41:22.105Z,100615.72
2022-10-19T15:43:52.995Z,100609.28
2022-10-19T15:47:13.519Z,100609.47
2022-10-19T15:49:59.131Z,100606.34
2022-10-19T15:52:31.182Z,100598.44
2022-10-19T15:55:01.464Z,100592.66
2022-10-19T15:57:34.114Z,100596.41
2022-10-19T16:00:12.860Z,100591.66
2022-10-19T16:02:41.220Z,100582.25
2022-10-19T16:05:11.503Z,100588.69
2022-10-19T16:07:43.053Z,100581.91
2022-10-19T16:10:18.437Z,100571.06
2022-10-19T16:12:46.918Z,100563.81
2022-10-19T16:15:16.707Z,100569.75
2022-10-19T16:17:47.110Z,100563.66
2022-10-19T16:20:16.112Z,100560.19
2022-10-19T16:22:49.161Z,100553.13
2022-10-19T16:25:18.796Z,100557.72
2022-10-19T16:27:47.780Z,100550.63
2022-10-19T16:30:16.857Z,100551.44
2022-10-19T16:32:47.152Z,100551.13
2022-10-19T16:35:16.106Z,100553.25
2022-10-19T16:37:45.851Z,100548.47
2022-10-19T16:40:14.355Z,100544.84
2022-10-19T16:42:42.685Z,100542.56
2022-10-19T16:45:12.794Z,100543.69
2022-10-19T16:47:42.458Z,100547.13
2022-10-19T16:50:12.685Z,100542.19
2022-10-19T16:52:41.308Z,100542.69
2022-10-19T16:55:11.555Z,100536.91
2022-10-19T16:57:40.198Z,100535.22
2022-10-19T17:00:10.552Z,100534.25
2022-10-19T17:02:42.004Z,100532.94
2022-10-19T17:05:12.905Z,100536.50
2022-10-19T17:07:41.175Z,100535.53
2022-10-19T17:10:12.162Z,100528.63
2022-10-19T17:12:41.729Z,100527.66
2022-10-19T17:18:02.304Z,100521.59
2022-10-19T17:20:31.004Z,100520.09
2022-10-19T17:22:59.506Z,100519.69
2022-10-19T17:25:29.765Z,100515.34
2022-10-19T17:27:58.858Z,100516.94
2022-10-19T17:30:27.139Z,100509.38
2022-10-19T17:32:55.822Z,100509.06
2022-10-19T17:35:24.329Z,100508.59
2022-10-19T17:37:52.945Z,100495.94
2022-10-19T17:40:21.804Z,100500.34
2022-10-19T17:42:51.596Z,100495.53
2022-10-19T17:45:20.213Z,100495.91
2022-10-19T17:47:48.968Z,100493.94
2022-10-19T17:50:17.429Z,100497.69
2022-10-19T17:52:45.968Z,100501.28
2022-10-19T17:55:14.316Z,100497.19
2022-10-19T17:57:43.007Z,100493.03
2022-10-19T18:00:14.892Z,100489.31
2022-10-19T18:02:45.990Z,100491.63
2022-10-19T18:05:14.320Z,100492.00
2022-10-19T18:07:45.804Z,100493.16
2022-10-19T18:10:15.584Z,100492.03
2022-10-19T18:12:43.919Z,100492.63
2022-10-19T18:15:13.824Z,100497.06
2022-10-19T18:17:42.578Z,100499.13
2022-10-19T18:20:12.973Z,100487.19
2022-10-19T18:25:11.771Z,100489.91
2022-10-19T18:27:40.224Z,100486.56
2022-10-19T18:30:10.371Z,100488.91
2022-10-19T18:32:40.695Z,100485.66
2022-10-19T18:35:10.852Z,100482.84
2022-10-19T18:37:39.196Z,100484.06
2022-10-19T18:40:10.606Z,100472.00
2022-10-19T18:42:39.572Z,100469.91
2022-10-19T18:45:10.082Z,100476.09
2022-10-19T18:47:40.223Z,100473.97
2022-10-19T18:50:09.456Z,100464.94
2022-10-19T18:52:40.415Z,100479.00
2022-10-19T18:55:10.223Z,100471.66
2022-10-19T18:57:38.730Z,100466.50
2022-10-19T19:00:09.286Z,100463.13
2022-10-19T19:02:46.790Z,100468.31
2022-10-19T19:05:16.714Z,100465.75
2022-10-19T19:07:45.361Z,100469.72
2022-10-19T19:10:14.659Z,100457.38
2022-10-19T19:12:44.294Z,100448.28
2022-10-19T19:15:13.378Z,100454.00
2022-10-19T19:17:43.166Z,100453.47
2022-10-19T19:20:12.662Z,100454.59
2022-10-19T19:22:41.368Z,100452.28
2022-10-19T19:25:10.775Z,100457.94
2022-10-19T19:27:39.773Z,100448.00
2022-10-19T19:30:10.941Z,100439.09
2022-10-19T19:32:40.021Z,100429.06
2022-10-19T19:35:10.906Z,100433.16
2022-10-19T19:37:39.429Z,100430.72
2022-10-19T19:40:10.265Z,100422.69
2022-10-19T19:42:41.596Z,100426.59
2022-10-19T19:45:11.632Z,100421.50
2022-10-19T19:47:39.952Z,100406.06
2022-10-19T19:50:11.420Z,100402.09
2022-10-19T19:52:40.659Z,100403.09
2022-10-19T19:55:10.335Z,100395.94
2022-10-19T19:57:39.034Z,100395.50
2022-10-19T20:00:10.756Z,100388.31
2022-10-19T20:02:41.692Z,100387.78
2022-10-19T20:05:12.473Z,100398.28
2022-10-19T20:07:40.965Z,100390.34
2022-10-19T20:10:10.539Z,100384.34
2022-10-19T20:12:40.347Z,100380.63
2022-10-19T20:15:11.141Z,100387.25
2022-10-19T20:17:41.339Z,100385.47
2022-10-19T20:20:14.502Z,100374.31
2022-10-19T20:22:47.676Z,100367.97
2022-10-19T20:25:16.722Z,100388.44
2022-10-19T20:27:45.317Z,100387.72
2022-10-19T20:30:14.045Z,100378.38
2022-10-19T20:32:42.752Z,100378.44
2022-10-19T20:35:16.582Z,100375.28
2022-10-19T20:37:49.036Z,100377.81
2022-10-19T20:40:18.488Z,100363.25
2022-10-19T20:42:48.857Z,100365.03
2022-10-19T20:45:17.767Z,100359.25
2022-10-19T20:47:46.156Z,100356.94
2022-10-19T20:50:19.242Z,100356.34
2022-10-19T20:52:50.355Z,100347.66
2022-10-19T20:55:20.492Z,100344.28
2022-10-19T20:57:49.142Z,100354.38
2022-10-19T21:00:18.472Z,100347.66
2022-10-19T21:02:47.233Z,100349.84
2022-10-19T21:05:17.266Z,100342.28
2022-10-19T21:07:46.551Z,100343.00
2022-10-19T21:10:15.457Z,100340.25
2022-10-19T21:12:44.366Z,100343.00
2022-10-19T21:15:13.245Z,100340.69
2022-10-19T21:17:42.557Z,100340.25
2022-10-19T21:20:13.446Z,100338.91
2022-10-19T21:22:44.368Z,100341.53
2022-10-19T21:25:13.144Z,100328.06
2022-10-19T21:27:41.440Z,100326.25
2022-10-19T21:30:11.199Z,100331.34
2022-10-19T21:32:39.714Z,100325.81
2022-10-19T21:35:09.180Z,100321.28
2022-10-19T21:37:38.171Z,100323.19
2022-10-19T21:40:11.390Z,100334.84
2022-10-19T21:42:39.950Z,100327.34
2022-10-19T21:45:29.425Z,100320.34
2022-10-19T21:47:58.888Z,100322.53
2022-10-19T21:50:28.409Z,100316.22
2022-10-19T21:52:57.193Z,100312.13
2022-10-19T21:55:29.616Z,100310.69
2022-10-19T21:57:58.039Z,100301.47
2022-10-19T22:00:26.308Z,100294.50
2022-10-19T22:02:54.768Z,100296.47
2022-10-19T22:05:23.289Z,100293.25
2022-10-19T22:07:51.856Z,100281.72
2022-10-19T22:10:20.556Z,100276.72
2022-10-19T22:12:50.837Z,100272.97
2022-10-19T22:15:19.741Z,100263.28
2022-10-19T22:17:48.585Z,100268.56
2022-10-19T22:20:17.399Z,100256.78
2022-10-19T22:22:46.096Z,100255.47
2022-10-19T22:25:15.295Z,100259.75
2022-10-19T22:27:43.851Z,100246.66
2022-10-19T22:30:15.310Z,100247.25
2022-10-19T22:32:43.656Z,100244.47
2022-10-19T22:35:12.279Z,100234.84
2022-10-19T22:37:40.625Z,100229.06
2022-10-19T22:40:10.322Z,100228.63
2022-10-19T22:42:38.926Z,100223.19
2022-10-19T22:45:09.251Z,100213.59
2022-10-19T22:47:39.253Z,100202.69
2022-10-19T22:50:11.813Z,100195.44
2022-10-19T22:52:40.395Z,100198.03
2022-10-19T22:55:09.989Z,100195.03
2022-10-19T22:57:38.571Z,100191.38
2022-10-19T23:00:09.043Z,100196.63
2022-10-19T23:02:39.264Z,100184.56
2022-10-19T23:05:08.582Z,100178.28
2022-10-19T23:07:38.276Z,100175.81
2022-10-19T23:10:08.292Z,100176.63
2022-10-19T23:12:36.600Z,100173.34
2022-10-19T23:15:05.960Z,100170.88
2022-10-19T23:17:34.857Z,100167.06
2022-10-19T23:20:05.443Z,100172.47
2022-10-19T23:22:33.868Z,100175.31
2022-10-19T23:25:14.978Z,100172.31
2022-10-19T23:27:43.349Z,100166.34
2022-10-19T23:30:13.041Z,100162.22
2022-10-19T23:32:41.439Z,100160.19
2022-10-19T23:35:11.864Z,100162.03
2022-10-19T23:37:40.181Z,100167.81
2022-10-19T23:40:10.296Z,100163.81
2022-10-19T23:42:38.851Z,100154.75
2022-10-19T23:45:08.891Z,100148.50
2022-10-19T23:47:37.875Z,100142.19
2022-10-19T23:50:08.103Z,100142.63
2022-10-19T23:52:38.252Z,100141.66
2022-10-19T23:55:08.481Z,100142.31
2022-10-19T23:57:37.591Z,100140.81
